sensor_id;sensor_type;location;lat;lon;timestamp;pressure;altitude;pressure_sealevel;temperature;humidity
47809;BME280;33573;38.790;-77.084;2024-02-23T00:01:34;100405.73;;;18.44;24.61
47809;BME280;33573;38.790;-77.084;2024-02-23T00:03:59;100410.64;;;18.40;24.65
47809;BME280;33573;38.790;-77.084;2024-02-23T00:06:29;100403.43;;;18.39;24.69
47809;BME280;33573;38.790;-77.084;2024-02-23T00:08:45;100389.61;;;18.35;24.68
47809;BME280;33573;38.790;-77.084;2024-02-23T00:11:16;100384.92;;;18.35;24.71
47809;BME280;33573;38.790;-77.084;2024-02-23T00:13:45;100378.29;;;18.32;24.75
47809;BME280;33573;38.790;-77.084;2024-02-23T00:16:07;100380.33;;;18.29;24.77
47809;BME280;33573;38.790;-77.084;2024-02-23T00:18:32;100377.79;;;18.34;24.74
47809;BME280;33573;38.790;-77.084;2024-02-23T00:21:02;100377.93;;;18.17;24.69
47809;BME280;33573;38.790;-77.084;2024-02-23T00:23:23;100381.02;;;18.37;24.69
47809;BME280;33573;38.790;-77.084;2024-02-23T00:25:49;100383.61;;;18.45;24.63
47809;BME280;33573;38.790;-77.084;2024-02-23T00:28:18;100378.77;;;18.47;24.63
47809;BME280;33573;38.790;-77.084;2024-02-23T00:30:34;100369.49;;;18.41;24.72
47809;BME280;33573;38.790;-77.084;2024-02-23T00:33:05;100364.84;;;18.59;24.76
47809;BME280;33573;38.790;-77.084;2024-02-23T00:35:34;100362.76;;;18.36;24.77
47809;BME280;33573;38.790;-77.084;2024-02-23T00:38:01;100362.05;;;18.35;24.77
47809;BME280;33573;38.790;-77.084;2024-02-23T00:40:21;100347.87;;;18.36;24.78
47809;BME280;33573;38.790;-77.084;2024-02-23T00:42:47;100334.34;;;18.28;24.87
47809;BME280;33573;38.790;-77.084;2024-02-23T00:45:16;100316.58;;;18.31;24.84
47809;BME280;33573;38.790;-77.084;2024-02-23T00:47:38;100308.46;;;18.32;24.87
47809;BME280;33573;38.790;-77.084;2024-02-23T00:50:04;100305.44;;;18.27;24.88
47809;BME280;33573;38.790;-77.084;2024-02-23T00:52:33;100297.80;;;18.31;24.85
47809;BME280;33573;38.790;-77.084;2024-02-23T00:54:54;100289.72;;;18.41;24.73
47809;BME280;33573;38.790;-77.084;2024-02-23T00:57:20;100284.85;;;18.19;24.76
47809;BME280;33573;38.790;-77.084;2024-02-23T00:59:49;100272.18;;;18.24;24.77
47809;BME280;33573;38.790;-77.084;2024-02-23T01:02:10;100265.42;;;18.35;24.83
47809;BME280;33573;38.790;-77.084;2024-02-23T01:04:31;100264.70;;;18.37;24.82
47809;BME280;33573;38.790;-77.084;2024-02-23T01:07:05;100258.97;;;18.33;24.88
47809;BME280;33573;38.790;-77.084;2024-02-23T01:09:22;100247.28;;;18.37;24.86
47809;BME280;33573;38.790;-77.084;2024-02-23T01:11:52;100226.47;;;18.36;24.85
47809;BME280;33573;38.790;-77.084;2024-02-23T01:14:18;100181.56;;;18.33;24.86
47809;BME280;33573;38.790;-77.084;2024-02-23T01:16:43;100163.73;;;18.26;24.93
47809;BME280;33573;38.790;-77.084;2024-02-23T01:19:09;100189.81;;;18.21;25.03
47809;BME280;33573;38.790;-77.084;2024-02-23T01:21:38;100184.77;;;18.38;24.81
47809;BME280;33573;38.790;-77.084;2024-02-23T01:24:00;100191.59;;;18.40;24.81
47809;BME280;33573;38.790;-77.084;2024-02-23T01:26:25;100173.53;;;18.48;24.73
47809;BME280;33573;38.790;-77.084;2024-02-23T01:28:55;100167.55;;;18.49;24.73
47809;BME280;33573;38.790;-77.084;2024-02-23T01:31:16;100173.95;;;18.51;24.73
47809;BME280;33573;38.790;-77.084;2024-02-23T01:33:41;100192.62;;;18.47;24.80
47809;BME280;33573;38.790;-77.084;2024-02-23T01:36:11;100188.63;;;18.37;24.89
47809;BME280;33573;38.790;-77.084;2024-02-23T01:38:33;100201.45;;;18.39;24.93
47809;BME280;33573;38.790;-77.084;2024-02-23T01:40:58;100218.90;;;18.37;24.96
47809;BME280;33573;38.790;-77.084;2024-02-23T01:43:27;100196.61;;;18.37;24.93
47809;BME280;33573;38.790;-77.084;2024-02-23T01:45:49;100179.29;;;18.37;24.94
47809;BME280;33573;38.790;-77.084;2024-02-23T01:48:14;100170.18;;;18.30;24.96
47809;BME280;33573;38.790;-77.084;2024-02-23T01:50:44;100153.79;;;18.33;24.96
47809;BME280;33573;38.790;-77.084;2024-02-23T01:53:05;100105.61;;;18.30;24.94
47809;BME280;33573;38.790;-77.084;2024-02-23T01:55:31;100124.99;;;18.36;24.92
47809;BME280;33573;38.790;-77.084;2024-02-23T01:58:00;100178.83;;;18.38;24.90
47809;BME280;33573;38.790;-77.084;2024-02-23T02:00:22;100186.77;;;18.52;24.77
47809;BME280;33573;38.790;-77.084;2024-02-23T02:02:48;100179.81;;;18.59;24.69
47809;BME280;33573;38.790;-77.084;2024-02-23T02:05:17;100180.88;;;18.57;24.80
47809;BME280;33573;38.790;-77.084;2024-02-23T02:07:38;100169.42;;;18.25;24.83
47809;BME280;33573;38.790;-77.084;2024-02-23T02:10:05;100151.25;;;18.52;24.83
47809;BME280;33573;38.790;-77.084;2024-02-23T02:12:33;100147.14;;;18.52;24.86
47809;BME280;33573;38.790;-77.084;2024-02-23T02:14:49;100139.00;;;18.31;24.79
47809;BME280;33573;38.790;-77.084;2024-02-23T02:17:21;100126.96;;;18.31;24.79
47809;BME280;33573;38.790;-77.084;2024-02-23T02:19:50;100115.53;;;18.55;24.81
47809;BME280;33573;38.790;-77.084;2024-02-23T02:22:11;100119.95;;;18.40;24.97
47809;BME280;33573;38.790;-77.084;2024-02-23T02:24:37;100116.94;;;18.36;25.03
47809;BME280;33573;38.790;-77.084;2024-02-23T02:27:06;100112.89;;;18.11;25.03
47809;BME280;33573;38.790;-77.084;2024-02-23T02:29:22;100113.54;;;18.22;25.16
47809;BME280;33573;38.790;-77.084;2024-02-23T02:31:53;100112.95;;;18.26;25.09
47809;BME280;33573;38.790;-77.084;2024-02-23T02:34:18;100105.59;;;18.49;24.88
47809;BME280;33573;38.790;-77.084;2024-02-23T02:36:44;100098.64;;;18.94;24.94
47809;BME280;33573;38.790;-77.084;2024-02-23T02:39:09;100095.77;;;18.56;24.86
47809;BME280;33573;38.790;-77.084;2024-02-23T02:41:39;100090.34;;;18.52;24.93
47809;BME280;33573;38.790;-77.084;2024-02-23T02:44:00;100084.79;;;18.33;25.05
47809;BME280;33573;38.790;-77.084;2024-02-23T02:46:25;100086.85;;;18.53;25.01
47809;BME280;33573;38.790;-77.084;2024-02-23T02:48:55;100086.16;;;18.49;25.16
47809;BME280;33573;38.790;-77.084;2024-02-23T02:51:16;100086.32;;;18.66;25.27
47809;BME280;33573;38.790;-77.084;2024-02-23T02:53:37;100080.32;;;18.43;25.25
47809;BME280;33573;38.790;-77.084;2024-02-23T02:56:11;100080.35;;;18.64;25.36
47809;BME280;33573;38.790;-77.084;2024-02-23T02:58:28;100074.79;;;18.39;25.53
47809;BME280;33573;38.790;-77.084;2024-02-23T03:00:58;100068.45;;;18.41;25.45
47809;BME280;33573;38.790;-77.084;2024-02-23T03:03:28;100058.58;;;18.42;25.39
47809;BME280;33573;38.790;-77.084;2024-02-23T03:05:49;100056.55;;;18.26;25.52
47809;BME280;33573;38.790;-77.084;2024-02-23T03:08:14;100053.82;;;18.27;25.46
47809;BME280;33573;38.790;-77.084;2024-02-23T03:10:35;100048.61;;;18.47;25.30
47809;BME280;33573;38.790;-77.084;2024-02-23T03:13:05;100042.65;;;18.59;25.31
47809;BME280;33573;38.790;-77.084;2024-02-23T03:15:31;100043.19;;;18.62;25.46
47809;BME280;33573;38.790;-77.084;2024-02-23T03:17:56;100042.86;;;18.67;25.49
47809;BME280;33573;38.790;-77.084;2024-02-23T03:20:26;100040.69;;;18.57;25.57
47809;BME280;33573;38.790;-77.084;2024-02-23T03:22:47;100042.29;;;18.75;25.60
47809;BME280;33573;38.790;-77.084;2024-02-23T03:25:08;100038.71;;;18.41;25.67
47809;BME280;33573;38.790;-77.084;2024-02-23T03:27:42;100041.64;;;18.30;25.72
47809;BME280;33573;38.790;-77.084;2024-02-23T03:30:05;100039.39;;;18.29;25.75
47809;BME280;33573;38.790;-77.084;2024-02-23T03:32:29;100034.18;;;18.15;25.79
47809;BME280;33573;38.790;-77.084;2024-02-23T03:34:59;100033.45;;;18.33;25.84
47809;BME280;33573;38.790;-77.084;2024-02-23T03:37:20;100030.63;;;18.10;25.82
47809;BME280;33573;38.790;-77.084;2024-02-23T03:39:45;100025.79;;;17.90;25.97
47809;BME280;33573;38.790;-77.084;2024-02-23T03:42:11;100019.93;;;18.18;25.91
47809;BME280;33573;38.790;-77.084;2024-02-23T03:44:36;100011.78;;;17.85;25.98
47809;BME280;33573;38.790;-77.084;2024-02-23T03:46:57;100009.77;;;17.89;25.91
47809;BME280;33573;38.790;-77.084;2024-02-23T03:49:22;100003.29;;;18.06;25.94
47809;BME280;33573;38.790;-77.084;2024-02-23T03:51:53;99999.15;;;17.84;25.92
47809;BME280;33573;38.790;-77.084;2024-02-23T03:54:13;99990.78;;;18.04;25.93
47809;BME280;33573;38.790;-77.084;2024-02-23T03:56:48;99992.03;;;18.16;26.05
47809;BME280;33573;38.790;-77.084;2024-02-23T03:59:09;99988.24;;;18.28;25.93
47809;BME280;33573;38.790;-77.084;2024-02-23T04:01:35;99980.62;;;17.87;26.04
47809;BME280;33573;38.790;-77.084;2024-02-23T04:04:04;99974.58;;;17.86;26.07
47809;BME280;33573;38.790;-77.084;2024-02-23T04:06:26;99971.02;;;17.62;26.08
47809;BME280;33573;38.790;-77.084;2024-02-23T04:08:51;99966.72;;;17.88;26.02
47809;BME280;33573;38.790;-77.084;2024-02-23T04:11:13;99965.38;;;17.79;26.09
47809;BME280;33573;38.790;-77.084;2024-02-23T04:13:42;99964.04;;;17.91;26.20
47809;BME280;33573;38.790;-77.084;2024-02-23T04:16:03;99962.96;;;17.77;26.29
47809;BME280;33573;38.790;-77.084;2024-02-23T04:18:37;99966.53;;;17.97;26.08
47809;BME280;33573;38.790;-77.084;2024-02-23T04:20:58;99964.23;;;17.92;26.12
47809;BME280;33573;38.790;-77.084;2024-02-23T04:23:19;99964.55;;;17.91;26.11
47809;BME280;33573;38.790;-77.084;2024-02-23T04:25:53;99958.58;;;17.80;26.22
47809;BME280;33573;38.790;-77.084;2024-02-23T04:28:15;99956.34;;;17.63;26.15
47809;BME280;33573;38.790;-77.084;2024-02-23T04:30:40;99955.93;;;17.60;26.14
47809;BME280;33573;38.790;-77.084;2024-02-23T04:33:10;99951.21;;;17.95;26.02
47809;BME280;33573;38.790;-77.084;2024-02-23T04:35:31;99946.04;;;17.96;25.97
47809;BME280;33573;38.790;-77.084;2024-02-23T04:37:57;99942.88;;;17.72;25.94
47809;BME280;33573;38.790;-77.084;2024-02-23T04:40:26;99940.78;;;17.91;25.98
47809;BME280;33573;38.790;-77.084;2024-02-23T04:42:48;99931.92;;;17.46;25.95
47809;BME280;33573;38.790;-77.084;2024-02-23T04:45:13;99932.74;;;17.96;25.91
47809;BME280;33573;38.790;-77.084;2024-02-23T04:47:43;99929.61;;;17.93;25.90
47809;BME280;33573;38.790;-77.084;2024-02-23T04:50:05;99924.50;;;17.51;26.06
47809;BME280;33573;38.790;-77.084;2024-02-23T04:52:29;99922.94;;;17.38;25.92
47809;BME280;33573;38.790;-77.084;2024-02-23T04:54:59;99921.96;;;17.75;26.00
47809;BME280;33573;38.790;-77.084;2024-02-23T04:57:20;99912.15;;;17.38;26.12
47809;BME280;33573;38.790;-77.084;2024-02-23T04:59:46;99908.24;;;17.33;26.17
47809;BME280;33573;38.790;-77.084;2024-02-23T05:02:11;99903.80;;;17.53;26.19
47809;BME280;33573;38.790;-77.084;2024-02-23T05:04:37;99898.06;;;17.67;26.03
47809;BME280;33573;38.790;-77.084;2024-02-23T05:07:02;99896.28;;;17.56;26.13
47809;BME280;33573;38.790;-77.084;2024-02-23T05:09:28;99897.50;;;17.58;26.09
47809;BME280;33573;38.790;-77.084;2024-02-23T05:11:53;99898.99;;;17.66;25.99
47809;BME280;33573;38.790;-77.084;2024-02-23T05:14:19;99896.15;;;17.26;25.91
47809;BME280;33573;38.790;-77.084;2024-02-23T05:16:39;99897.17;;;17.47;25.94
47809;BME280;33573;38.790;-77.084;2024-02-23T05:19:10;99895.07;;;17.63;25.97
47809;BME280;33573;38.790;-77.084;2024-02-23T05:21:35;99890.68;;;17.56;25.83
47809;BME280;33573;38.790;-77.084;2024-02-23T05:24:05;99885.44;;;17.88;25.73
47809;BME280;33573;38.790;-77.084;2024-02-23T05:26:26;99877.20;;;17.71;25.65
47809;BME280;33573;38.790;-77.084;2024-02-23T05:28:51;99877.33;;;17.98;25.58
47809;BME280;33573;38.790;-77.084;2024-02-23T05:31:17;99875.89;;;17.84;25.68
47809;BME280;33573;38.790;-77.084;2024-02-23T05:33:37;99873.83;;;17.93;25.58
47809;BME280;33573;38.790;-77.084;2024-02-23T05:36:08;99871.68;;;17.91;25.59
47809;BME280;33573;38.790;-77.084;2024-02-23T05:38:37;99874.65;;;17.65;25.60
47809;BME280;33573;38.790;-77.084;2024-02-23T05:40:59;99868.52;;;17.88;25.57
47809;BME280;33573;38.790;-77.084;2024-02-23T05:43:24;99865.02;;;17.51;25.67
47809;BME280;33573;38.790;-77.084;2024-02-23T05:45:50;99862.69;;;17.81;25.56
47809;BME280;33573;38.790;-77.084;2024-02-23T05:48:15;99868.46;;;17.48;25.64
47809;BME280;33573;38.790;-77.084;2024-02-23T05:50:41;99870.12;;;17.62;25.71
47809;BME280;33573;38.790;-77.084;2024-02-23T05:53:06;99868.73;;;17.69;25.65
47809;BME280;33573;38.790;-77.084;2024-02-23T05:55:36;99872.68;;;17.74;25.62
47809;BME280;33573;38.790;-77.084;2024-02-23T05:57:57;99874.23;;;17.82;25.55
47809;BME280;33573;38.790;-77.084;2024-02-23T06:00:23;99871.70;;;17.85;25.52
47809;BME280;33573;38.790;-77.084;2024-02-23T06:02:52;99870.54;;;17.78;25.54
47809;BME280;33573;38.790;-77.084;2024-02-23T06:05:14;99871.42;;;17.72;25.63
47809;BME280;33573;38.790;-77.084;2024-02-23T06:07:41;99868.71;;;17.65;25.62
47809;BME280;33573;38.790;-77.084;2024-02-23T06:09:59;99868.23;;;17.44;25.63
47809;BME280;33573;38.790;-77.084;2024-02-23T06:12:25;99865.52;;;17.30;25.53
47809;BME280;33573;38.790;-77.084;2024-02-23T06:14:55;99858.88;;;17.83;25.43
47809;BME280;33573;38.790;-77.084;2024-02-23T06:17:25;99850.70;;;17.67;25.58
47809;BME280;33573;38.790;-77.084;2024-02-23T06:19:46;99856.25;;;17.14;25.60
47809;BME280;33573;38.790;-77.084;2024-02-23T06:22:11;99851.29;;;17.48;25.71
47809;BME280;33573;38.790;-77.084;2024-02-23T06:24:41;99850.53;;;17.52;25.46
47809;BME280;33573;38.790;-77.084;2024-02-23T06:27:03;99848.38;;;17.39;25.55
47809;BME280;33573;38.790;-77.084;2024-02-23T06:29:28;99841.08;;;17.49;25.43
47809;BME280;33573;38.790;-77.084;2024-02-23T06:31:58;99841.29;;;17.51;25.65
47809;BME280;33573;38.790;-77.084;2024-02-23T06:34:14;99836.74;;;17.61;25.57
47809;BME280;33573;38.790;-77.084;2024-02-23T06:36:39;99837.91;;;17.51;25.58
47809;BME280;33573;38.790;-77.084;2024-02-23T06:39:14;99834.33;;;17.29;25.61
47809;BME280;33573;38.790;-77.084;2024-02-23T06:41:30;99828.73;;;17.58;25.49
47809;BME280;33573;38.790;-77.084;2024-02-23T06:44:01;99832.79;;;17.70;25.41
47809;BME280;33573;38.790;-77.084;2024-02-23T06:46:21;99829.47;;;17.15;25.61
47809;BME280;33573;38.790;-77.084;2024-02-23T06:48:52;99822.27;;;17.82;25.46
47809;BME280;33573;38.790;-77.084;2024-02-23T06:51:17;99825.85;;;17.20;25.55
47809;BME280;33573;38.790;-77.084;2024-02-23T06:53:47;99824.96;;;17.35;25.62
47809;BME280;33573;38.790;-77.084;2024-02-23T06:56:04;99813.26;;;17.58;25.47
47809;BME280;33573;38.790;-77.084;2024-02-23T06:58:34;99816.19;;;17.53;25.44
47809;BME280;33573;38.790;-77.084;2024-02-23T07:01:03;99807.25;;;17.60;25.43
47809;BME280;33573;38.790;-77.084;2024-02-23T07:03:24;99802.29;;;17.16;25.53
47809;BME280;33573;38.790;-77.084;2024-02-23T07:05:45;99797.07;;;17.21;25.69
47809;BME280;33573;38.790;-77.084;2024-02-23T07:08:20;99800.43;;;17.66;25.32
47809;BME280;33573;38.790;-77.084;2024-02-23T07:10:41;99796.74;;;17.45;25.51
47809;BME280;33573;38.790;-77.084;2024-02-23T07:13:06;99791.37;;;17.12;25.53
47809;BME280;33573;38.790;-77.084;2024-02-23T07:15:36;99785.58;;;17.47;25.43
47809;BME280;33573;38.790;-77.084;2024-02-23T07:17:57;99783.47;;;17.32;25.57
47809;BME280;33573;38.790;-77.084;2024-02-23T07:20:23;99788.22;;;17.19;25.67
47809;BME280;33573;38.790;-77.084;2024-02-23T07:22:52;99783.19;;;17.21;25.65
47809;BME280;33573;38.790;-77.084;2024-02-23T07:25:16;99783.96;;;17.26;25.60
47809;BME280;33573;38.790;-77.084;2024-02-23T07:27:39;99777.80;;;17.26;25.67
47809;BME280;33573;38.790;-77.084;2024-02-23T07:30:00;99779.32;;;17.10;25.76
47809;BME280;33573;38.790;-77.084;2024-02-23T07:32:31;99772.08;;;17.14;25.66
47809;BME280;33573;38.790;-77.084;2024-02-23T07:34:56;99768.25;;;17.19;25.64
47809;BME280;33573;38.790;-77.084;2024-02-23T07:37:26;99761.80;;;17.16;25.65
47809;BME280;33573;38.790;-77.084;2024-02-23T07:39:47;99755.90;;;17.12;25.91
47809;BME280;33573;38.790;-77.084;2024-02-23T07:42:13;99748.35;;;17.40;25.63
47809;BME280;33573;38.790;-77.084;2024-02-23T07:44:42;99746.06;;;17.14;25.62
47809;BME280;33573;38.790;-77.084;2024-02-23T07:47:03;99739.29;;;17.38;25.64
47809;BME280;33573;38.790;-77.084;2024-02-23T07:49:28;99733.49;;;17.18;25.62
47809;BME280;33573;38.790;-77.084;2024-02-23T07:51:58;99729.51;;;17.34;25.42
47809;BME280;33573;38.790;-77.084;2024-02-23T07:54:19;99727.64;;;17.48;25.33
47809;BME280;33573;38.790;-77.084;2024-02-23T07:56:45;99728.59;;;17.66;25.35
47809;BME280;33573;38.790;-77.084;2024-02-23T07:59:14;99726.62;;;16.94;25.54
47809;BME280;33573;38.790;-77.084;2024-02-23T08:01:36;99724.67;;;17.27;25.51
47809;BME280;33573;38.790;-77.084;2024-02-23T08:04:01;99718.11;;;16.86;25.85
47809;BME280;33573;38.790;-77.084;2024-02-23T08:06:31;99712.41;;;17.26;25.65
47809;BME280;33573;38.790;-77.084;2024-02-23T08:08:52;99707.61;;;17.23;25.72
47809;BME280;33573;38.790;-77.084;2024-02-23T08:11:18;99707.14;;;17.21;25.75
47809;BME280;33573;38.790;-77.084;2024-02-23T08:13:47;99705.54;;;17.06;25.71
47809;BME280;33573;38.790;-77.084;2024-02-23T08:16:04;99700.87;;;16.92;25.77
47809;BME280;33573;38.790;-77.084;2024-02-23T08:18:29;99694.11;;;16.95;25.70
47809;BME280;33573;38.790;-77.084;2024-02-23T08:21:04;99691.73;;;17.07;25.80
47809;BME280;33573;38.790;-77.084;2024-02-23T08:23:25;99695.32;;;17.18;25.70
47809;BME280;33573;38.790;-77.084;2024-02-23T08:25:50;99701.08;;;16.87;25.73
47809;BME280;33573;38.790;-77.084;2024-02-23T08:28:16;99699.22;;;17.05;25.64
47809;BME280;33573;38.790;-77.084;2024-02-23T08:30:46;99697.60;;;17.04;25.78
47809;BME280;33573;38.790;-77.084;2024-02-23T08:33:07;99703.22;;;17.21;25.63
47809;BME280;33573;38.790;-77.084;2024-02-23T08:35:32;99703.05;;;17.24;25.82
47809;BME280;33573;38.790;-77.084;2024-02-23T08:38:02;99702.93;;;16.96;25.87
47809;BME280;33573;38.790;-77.084;2024-02-23T08:40:23;99710.83;;;16.94;25.71
47809;BME280;33573;38.790;-77.084;2024-02-23T08:42:49;99713.92;;;16.94;25.85
47809;BME280;33573;38.790;-77.084;2024-02-23T08:45:18;99720.40;;;16.97;25.84
47809;BME280;33573;38.790;-77.084;2024-02-23T08:47:41;99717.77;;;17.01;25.78
47809;BME280;33573;38.790;-77.084;2024-02-23T08:50:06;99711.60;;;17.00;25.55
47809;BME280;33573;38.790;-77.084;2024-02-23T08:52:25;99704.37;;;16.63;25.91
47809;BME280;33573;38.790;-77.084;2024-02-23T08:54:56;99700.33;;;17.36;25.69
47809;BME280;33573;38.790;-77.084;2024-02-23T08:57:21;99687.86;;;17.20;25.84
47809;BME280;33573;38.790;-77.084;2024-02-23T08:59:51;99687.04;;;16.97;25.83
47809;BME280;33573;38.790;-77.084;2024-02-23T09:02:12;99681.09;;;17.20;25.81
47809;BME280;33573;38.790;-77.084;2024-02-23T09:04:38;99682.81;;;16.99;25.80
47809;BME280;33573;38.790;-77.084;2024-02-23T09:07:07;99685.80;;;16.78;25.75
47809;BME280;33573;38.790;-77.084;2024-02-23T09:09:23;99689.30;;;16.96;25.78
47809;BME280;33573;38.790;-77.084;2024-02-23T09:11:54;99692.69;;;17.01;25.69
47809;BME280;33573;38.790;-77.084;2024-02-23T09:14:24;99695.99;;;16.62;25.87
47809;BME280;33573;38.790;-77.084;2024-02-23T09:16:45;99682.61;;;16.78;25.91
47809;BME280;33573;38.790;-77.084;2024-02-23T09:19:10;99684.79;;;16.80;25.90
47809;BME280;33573;38.790;-77.084;2024-02-23T09:21:40;99694.10;;;16.75;25.71
47809;BME280;33573;38.790;-77.084;2024-02-23T09:24:01;99683.02;;;16.98;25.91
47809;BME280;33573;38.790;-77.084;2024-02-23T09:26:26;99672.52;;;16.51;25.88
47809;BME280;33573;38.790;-77.084;2024-02-23T09:28:47;99674.81;;;17.01;25.90
47809;BME280;33573;38.790;-77.084;2024-02-23T09:31:17;99677.14;;;17.13;25.77
47809;BME280;33573;38.790;-77.084;2024-02-23T09:33:43;99673.15;;;17.21;25.70
47809;BME280;33573;38.790;-77.084;2024-02-23T09:36:12;99673.69;;;16.60;25.83
47809;BME280;33573;38.790;-77.084;2024-02-23T09:38:33;99673.90;;;17.00;25.88
47809;BME280;33573;38.790;-77.084;2024-02-23T09:40:59;99677.92;;;16.47;25.93
47809;BME280;33573;38.790;-77.084;2024-02-23T09:43:29;99674.50;;;16.98;25.88
47809;BME280;33573;38.790;-77.084;2024-02-23T09:45:51;99672.22;;;17.14;25.72
47809;BME280;33573;38.790;-77.084;2024-02-23T09:48:17;99676.60;;;16.81;25.82
47809;BME280;33573;38.790;-77.084;2024-02-23T09:50:45;99681.89;;;16.72;25.87
47809;BME280;33573;38.790;-77.084;2024-02-23T09:53:08;99677.54;;;16.54;25.80
47809;BME280;33573;38.790;-77.084;2024-02-23T09:55:32;99656.48;;;16.90;25.90
47809;BME280;33573;38.790;-77.084;2024-02-23T09:58:01;99648.68;;;16.53;25.87
47809;BME280;33573;38.790;-77.084;2024-02-23T10:00:23;99653.31;;;16.65;25.90
47809;BME280;33573;38.790;-77.084;2024-02-23T10:02:48;99657.39;;;16.86;25.92
47809;BME280;33573;38.790;-77.084;2024-02-23T10:05:18;99656.11;;;16.58;25.97
47809;BME280;33573;38.790;-77.084;2024-02-23T10:07:34;99656.37;;;16.67;25.90
47809;BME280;33573;38.790;-77.084;2024-02-23T10:10:07;99647.43;;;16.78;26.01
47809;BME280;33573;38.790;-77.084;2024-02-23T10:12:34;99644.29;;;16.88;25.90
47809;BME280;33573;38.790;-77.084;2024-02-23T10:14:55;99643.76;;;16.72;25.79
47809;BME280;33573;38.790;-77.084;2024-02-23T10:17:21;99633.28;;;16.80;25.71
47809;BME280;33573;38.790;-77.084;2024-02-23T10:19:46;99628.77;;;16.95;25.61
47809;BME280;33573;38.790;-77.084;2024-02-23T10:22:12;99641.22;;;17.05;25.53
47809;BME280;33573;38.790;-77.084;2024-02-23T10:24:37;99643.69;;;17.19;25.20
47809;BME280;33573;38.790;-77.084;2024-02-23T10:27:07;99637.77;;;17.33;25.10
47809;BME280;33573;38.790;-77.084;2024-02-23T10:29:28;99642.01;;;17.48;25.01
47809;BME280;33573;38.790;-77.084;2024-02-23T10:31:56;99650.48;;;17.83;24.92
47809;BME280;33573;38.790;-77.084;2024-02-23T10:34:23;99666.41;;;17.68;24.85
47809;BME280;33573;38.790;-77.084;2024-02-23T10:36:46;99667.47;;;17.71;24.91
47809;BME280;33573;38.790;-77.084;2024-02-23T10:39:10;99666.41;;;17.78;24.87
47809;BME280;33573;38.790;-77.084;2024-02-23T10:41:40;99665.59;;;17.33;24.91
47809;BME280;33573;38.790;-77.084;2024-02-23T10:43:56;99664.24;;;17.64;24.90
47809;BME280;33573;38.790;-77.084;2024-02-23T10:46:22;99675.54;;;17.70;24.91
47809;BME280;33573;38.790;-77.084;2024-02-23T10:48:56;99679.26;;;18.03;24.79
47809;BME280;33573;38.790;-77.084;2024-02-23T10:51:18;99676.10;;;17.92;24.88
47809;BME280;33573;38.790;-77.084;2024-02-23T10:53:44;99676.73;;;17.85;24.99
47809;BME280;33573;38.790;-77.084;2024-02-23T10:56:12;99678.59;;;17.73;24.89
47809;BME280;33573;38.790;-77.084;2024-02-23T10:58:34;99674.35;;;17.74;24.93
47809;BME280;33573;38.790;-77.084;2024-02-23T11:01:01;99680.09;;;17.78;24.94
47809;BME280;33573;38.790;-77.084;2024-02-23T11:03:29;99683.62;;;17.83;24.97
47809;BME280;33573;38.790;-77.084;2024-02-23T11:05:50;99696.67;;;18.15;24.88
47809;BME280;33573;38.790;-77.084;2024-02-23T11:08:18;99702.31;;;18.02;25.05
47809;BME280;33573;38.790;-77.084;2024-02-23T11:10:49;99703.53;;;17.66;25.13
47809;BME280;33573;38.790;-77.084;2024-02-23T11:13:01;99704.82;;;17.59;25.22
47809;BME280;33573;38.790;-77.084;2024-02-23T11:15:32;99708.82;;;17.99;25.09
47809;BME280;33573;38.790;-77.084;2024-02-23T11:18:01;99721.09;;;17.54;25.06
47809;BME280;33573;38.790;-77.084;2024-02-23T11:20:23;99725.39;;;18.10;25.05
47809;BME280;33573;38.790;-77.084;2024-02-23T11:22:52;99724.95;;;17.96;25.01
47809;BME280;33573;38.790;-77.084;2024-02-23T11:25:18;99725.54;;;18.23;24.94
47809;BME280;33573;38.790;-77.084;2024-02-23T11:27:40;99720.85;;;18.08;25.18
47809;BME280;33573;38.790;-77.084;2024-02-23T11:30:01;99722.53;;;17.86;25.39
47809;BME280;33573;38.790;-77.084;2024-02-23T11:32:36;99726.60;;;17.49;25.56
47809;BME280;33573;38.790;-77.084;2024-02-23T11:34:56;99731.07;;;17.73;25.55
47809;BME280;33573;38.790;-77.084;2024-02-23T11:37:21;99732.75;;;17.84;25.46
47809;BME280;33573;38.790;-77.084;2024-02-23T11:39:42;99731.92;;;17.98;25.30
47809;BME280;33573;38.790;-77.084;2024-02-23T11:42:16;99733.53;;;17.91;25.15
47809;BME280;33573;38.790;-77.084;2024-02-23T11:44:37;99729.77;;;17.93;25.22
47809;BME280;33573;38.790;-77.084;2024-02-23T11:47:04;99725.76;;;18.14;25.28
47809;BME280;33573;38.790;-77.084;2024-02-23T11:49:32;99726.83;;;17.79;25.39
47809;BME280;33573;38.790;-77.084;2024-02-23T11:51:49;99727.27;;;17.89;25.60
47809;BME280;33573;38.790;-77.084;2024-02-23T11:54:19;99727.42;;;17.89;25.55
47809;BME280;33573;38.790;-77.084;2024-02-23T11:56:41;99719.74;;;17.44;25.85
47809;BME280;33573;38.790;-77.084;2024-02-23T11:59:11;99722.45;;;17.92;25.60
47809;BME280;33573;38.790;-77.084;2024-02-23T12:01:36;99727.87;;;17.85;25.45
47809;BME280;33573;38.790;-77.084;2024-02-23T12:04:05;99728.46;;;17.69;25.33
47809;BME280;33573;38.790;-77.084;2024-02-23T12:06:27;99731.76;;;18.22;25.29
47809;BME280;33573;38.790;-77.084;2024-02-23T12:08:52;99734.51;;;18.21;25.37
47809;BME280;33573;38.790;-77.084;2024-02-23T12:11:22;99734.52;;;18.06;25.63
47809;BME280;33573;38.790;-77.084;2024-02-23T12:13:43;99733.44;;;17.92;25.78
47809;BME280;33573;38.790;-77.084;2024-02-23T12:16:08;99725.40;;;17.75;26.01
47809;BME280;33573;38.790;-77.084;2024-02-23T12:18:38;99720.11;;;17.55;25.95
47809;BME280;33573;38.790;-77.084;2024-02-23T12:21:00;99717.87;;;17.81;25.71
47809;BME280;33573;38.790;-77.084;2024-02-23T12:23:25;99714.91;;;18.11;25.59
47809;BME280;33573;38.790;-77.084;2024-02-23T12:25:53;99716.77;;;17.96;25.54
47809;BME280;33573;38.790;-77.084;2024-02-23T12:28:18;99720.46;;;17.90;25.62